KONA/ONA METAR and TAF weather

Enter ICAO airport designator
Station Type Date Time Source
KONA METAR 2019/06/17 04:36 UTC NOAA

KONA 170436Z AUTO 15003KT 10SM OVC015 15/12 A2998 RMK AO2


Station Type Date Time Source
KONA Decoded METAR 2019/06/17 04:36 UTC NOAA

Winona, Winona Municipal Airport-Max Conrad Field, MN, United States (KONA) 44-05N 091-42W
Jun 17, 2019 - 12:36 AM EDT / 2019.06.17 0436 UTC
Wind: from the SSE (150 degrees) at 3 MPH (3 KT):0
Visibility: 10 mile(s):0
Sky conditions: overcast
Temperature: 59 F (15 C)
Dew Point: 53 F (12 C)
Relative Humidity: 82%
Pressure (altimeter): 29.98 in. Hg (1015 hPa)
ob: KONA 170436Z AUTO 15003KT 10SM OVC015 15/12 A2998 RMK AO2
cycle: 4

Station Type Date Time Source
KONA TAF UTC NOAA

Error!

Example: see airport list